createdAt,value
2017-10-26T00:01:33.093Z,5.67
2017-10-26T00:04:00.686Z,4.43
2017-10-26T00:06:28.317Z,6.20
2017-10-26T00:08:55.909Z,5.30
2017-10-26T00:11:25.053Z,5.13
2017-10-26T00:13:52.641Z,4.60
2017-10-26T00:16:20.300Z,5.63
2017-10-26T00:18:47.892Z,5.17
2017-10-26T00:21:15.618Z,9.23
2017-10-26T00:23:43.303Z,4.20
2017-10-26T00:26:10.934Z,4.13
2017-10-26T00:28:38.538Z,6.77
2017-10-26T00:31:06.137Z,6.27
2017-10-26T00:33:33.774Z,5.57
2017-10-26T00:36:02.141Z,6.30
2017-10-26T00:38:29.780Z,11.70
2017-10-26T00:40:57.427Z,10.10
2017-10-26T00:43:25.021Z,11.13
2017-10-26T00:45:52.621Z,11.30
2017-10-26T00:48:20.279Z,11.70
2017-10-26T00:50:47.923Z,10.30
2017-10-26T00:53:16.286Z,9.27
2017-10-26T00:55:43.935Z,16.07
2017-10-26T00:58:14.316Z,15.33
2017-10-26T01:00:41.860Z,16.17
2017-10-26T01:03:10.211Z,17.10
2017-10-26T01:05:37.760Z,24.03
2017-10-26T01:08:05.341Z,22.63
2017-10-26T01:10:32.884Z,24.60
2017-10-26T01:13:00.430Z,18.30
2017-10-26T01:15:28.006Z,15.43
2017-10-26T01:17:55.601Z,17.50
2017-10-26T01:20:23.906Z,16.23
2017-10-26T01:22:51.447Z,32.60
2017-10-26T01:25:19.021Z,33.37
2017-10-26T01:27:46.694Z,40.03
2017-10-26T01:30:14.288Z,33.23
2017-10-26T01:32:41.828Z,27.60
2017-10-26T01:35:09.374Z,28.03
2017-10-26T01:37:36.965Z,17.57
2017-10-26T01:40:04.508Z,17.27
2017-10-26T01:42:32.052Z,20.70
2017-10-26T01:44:59.639Z,25.47
2017-10-26T01:47:27.213Z,30.13
2017-10-26T01:49:54.757Z,34.03
2017-10-26T01:52:22.327Z,28.30
2017-10-26T01:54:49.870Z,29.23
2017-10-26T01:57:17.445Z,32.00
2017-10-26T01:59:45.029Z,23.70
2017-10-26T02:02:13.337Z,35.70
2017-10-26T02:04:40.882Z,30.20
2017-10-26T02:07:09.226Z,23.20
2017-10-26T02:09:36.773Z,27.73
2017-10-26T02:12:04.345Z,28.43
2017-10-26T02:14:31.936Z,27.33
2017-10-26T02:17:00.246Z,20.67
2017-10-26T02:19:27.787Z,20.20
2017-10-26T02:21:55.369Z,26.13
2017-10-26T02:24:22.925Z,25.20
2017-10-26T02:26:50.493Z,28.00
2017-10-26T02:29:30.017Z,26.00
2017-10-26T02:31:57.556Z,33.50
2017-10-26T02:34:25.909Z,35.97
2017-10-26T02:36:54.959Z,33.40
2017-10-26T02:39:22.507Z,35.23
2017-10-26T02:41:50.117Z,31.60
2017-10-26T02:44:17.661Z,36.83
2017-10-26T02:46:45.206Z,30.90
2017-10-26T02:49:12.862Z,32.80
2017-10-26T02:51:40.433Z,34.53
2017-10-26T02:54:07.977Z,51.07
2017-10-26T02:56:35.545Z,64.50
2017-10-26T02:59:03.133Z,76.93
2017-10-26T03:01:30.716Z,83.13
2017-10-26T03:03:59.143Z,51.37
2017-10-26T03:06:26.720Z,30.30
2017-10-26T03:08:54.303Z,123.13
2017-10-26T03:11:21.840Z,68.43
2017-10-26T03:13:49.478Z,52.13
2017-10-26T03:16:17.052Z,45.40
2017-10-26T03:18:44.606Z,33.10
2017-10-26T03:21:12.182Z,37.50
2017-10-26T03:23:39.724Z,35.70
2017-10-26T03:26:07.316Z,50.70
2017-10-26T03:28:34.860Z,35.50
2017-10-26T03:31:02.409Z,31.97
2017-10-26T03:33:30.002Z,29.00
2017-10-26T03:35:57.541Z,28.33
2017-10-26T03:38:25.082Z,32.53
2017-10-26T03:40:52.661Z,33.93
2017-10-26T03:43:20.212Z,35.37
2017-10-26T03:45:47.794Z,33.63
2017-10-26T03:48:15.386Z,33.17
2017-10-26T03:50:43.745Z,32.00
2017-10-26T03:53:12.061Z,28.50
2017-10-26T03:55:39.649Z,29.37
2017-10-26T03:58:07.224Z,30.30
2017-10-26T04:00:34.765Z,34.97
2017-10-26T04:03:02.339Z,30.17
2017-10-26T04:05:29.890Z,36.00
2017-10-26T04:07:57.468Z,32.13
2017-10-26T04:10:25.014Z,33.43
2017-10-26T04:12:52.595Z,33.53
2017-10-26T04:15:20.147Z,35.37
2017-10-26T04:17:47.690Z,33.73
2017-10-26T04:20:15.417Z,28.50
2017-10-26T04:22:42.955Z,28.80
2017-10-26T04:25:10.508Z,30.80
2017-10-26T04:27:38.087Z,33.83
2017-10-26T04:30:06.520Z,40.93
2017-10-26T04:32:34.058Z,41.77
2017-10-26T04:35:01.645Z,41.23
2017-10-26T04:37:29.184Z,43.63
2017-10-26T04:39:56.762Z,38.63
2017-10-26T04:42:24.302Z,48.90
2017-10-26T04:44:51.880Z,37.57
2017-10-26T04:47:19.422Z,40.43
2017-10-26T04:49:47.006Z,37.00
2017-10-26T04:52:14.558Z,38.07
2017-10-26T04:54:42.132Z,42.07
2017-10-26T04:57:09.676Z,48.80
2017-10-26T04:59:37.258Z,52.60
2017-10-26T05:02:04.810Z,38.80
2017-10-26T05:04:32.411Z,42.33
2017-10-26T05:07:00.727Z,40.97
2017-10-26T05:09:28.269Z,34.80
2017-10-26T05:11:55.848Z,37.97
2017-10-26T05:14:23.385Z,41.47
2017-10-26T05:16:50.964Z,36.13
2017-10-26T05:19:18.630Z,35.23
2017-10-26T05:21:46.212Z,35.60
2017-10-26T05:24:13.761Z,39.40
2017-10-26T05:26:41.346Z,37.63
2017-10-26T05:29:08.896Z,36.77
2017-10-26T05:31:36.501Z,36.90
2017-10-26T05:34:04.045Z,35.90
2017-10-26T05:36:32.386Z,31.30
2017-10-26T05:38:59.937Z,29.27
2017-10-26T05:41:27.520Z,31.40
2017-10-26T05:43:55.061Z,36.07
2017-10-26T05:46:22.640Z,30.47
2017-10-26T05:48:50.176Z,32.30
2017-10-26T05:51:17.757Z,33.77
2017-10-26T05:53:45.325Z,27.20
2017-10-26T05:56:12.911Z,25.87
2017-10-26T05:58:40.456Z,22.23
2017-10-26T06:01:08.812Z,16.30
2017-10-26T06:03:36.363Z,17.60
2017-10-26T06:06:03.942Z,17.20
2017-10-26T06:08:31.525Z,12.90
2017-10-26T06:10:59.881Z,13.70
2017-10-26T06:13:27.433Z,10.83
2017-10-26T06:15:55.007Z,11.07
2017-10-26T06:18:22.550Z,14.50
2017-10-26T06:20:50.103Z,17.67
2017-10-26T06:23:17.687Z,27.13
2017-10-26T06:25:45.286Z,29.50
2017-10-26T06:28:12.859Z,23.27
2017-10-26T06:30:40.414Z,15.37
2017-10-26T06:33:07.991Z,10.00
2017-10-26T06:35:35.536Z,9.53
2017-10-26T06:38:03.106Z,11.00
2017-10-26T06:40:30.644Z,12.60
2017-10-26T06:42:58.223Z,11.20
2017-10-26T06:45:25.770Z,26.27
2017-10-26T06:47:53.363Z,17.53
2017-10-26T06:50:20.932Z,8.83
2017-10-26T06:52:48.546Z,12.03
2017-10-26T06:55:16.089Z,10.50
2017-10-26T06:57:44.429Z,8.93
2017-10-26T07:00:11.972Z,10.77
2017-10-26T07:02:39.549Z,9.57
2017-10-26T07:05:07.085Z,7.70
2017-10-26T07:07:34.740Z,22.17
2017-10-26T07:10:02.276Z,8.60
2017-10-26T07:12:29.859Z,7.80
2017-10-26T07:14:57.397Z,7.87
2017-10-26T07:17:24.980Z,9.40
2017-10-26T07:19:52.521Z,9.20
2017-10-26T07:22:20.099Z,6.57
2017-10-26T07:24:47.655Z,7.57
2017-10-26T07:27:15.244Z,6.17
2017-10-26T07:29:42.780Z,7.60
2017-10-26T07:32:10.353Z,4.93
2017-10-26T07:34:37.893Z,5.53
2017-10-26T07:37:05.491Z,11.23
2017-10-26T07:39:33.040Z,7.93
2017-10-26T07:42:00.658Z,10.20
2017-10-26T07:44:28.202Z,11.70
2017-10-26T07:46:56.559Z,8.33
2017-10-26T07:49:24.886Z,13.00
2017-10-26T07:51:52.462Z,11.63
2017-10-26T07:54:20.118Z,28.03
2017-10-26T07:56:47.781Z,8.40
2017-10-26T07:59:15.332Z,10.37
2017-10-26T08:01:42.921Z,8.00
2017-10-26T08:04:10.466Z,11.87
2017-10-26T08:06:38.052Z,10.17
2017-10-26T08:09:05.600Z,12.60
2017-10-26T08:11:33.189Z,8.83
2017-10-26T08:14:01.490Z,3.37
2017-10-26T08:16:29.065Z,3.77
2017-10-26T08:18:56.600Z,6.93
2017-10-26T08:21:24.917Z,6.83
2017-10-26T08:23:52.498Z,11.00
2017-10-26T08:26:20.058Z,3.53
2017-10-26T08:28:47.640Z,2.40
2017-10-26T08:31:15.180Z,6.93
2017-10-26T08:33:42.758Z,7.10
2017-10-26T08:36:10.297Z,7.67
2017-10-26T08:38:37.880Z,6.33
2017-10-26T08:41:05.416Z,3.47
2017-10-26T08:43:32.987Z,7.80
2017-10-26T08:46:00.529Z,4.93
2017-10-26T08:48:28.105Z,4.40
2017-10-26T08:50:55.638Z,2.80
2017-10-26T08:53:23.216Z,3.33
2017-10-26T08:55:50.763Z,2.67
2017-10-26T08:58:18.369Z,4.90
2017-10-26T09:00:46.669Z,6.73
2017-10-26T09:03:14.254Z,6.97
2017-10-26T09:05:41.800Z,6.03
2017-10-26T09:08:09.392Z,8.07
2017-10-26T09:10:36.920Z,2.63
2017-10-26T09:13:07.588Z,6.90
2017-10-26T09:15:35.125Z,6.10
2017-10-26T09:18:02.698Z,6.67
2017-10-26T09:20:30.238Z,11.17
2017-10-26T09:22:57.840Z,12.80
2017-10-26T09:25:25.387Z,9.80
2017-10-26T09:27:52.992Z,5.00
2017-10-26T09:30:21.288Z,5.53
2017-10-26T09:33:03.817Z,4.97
2017-10-26T09:35:31.370Z,2.50
2017-10-26T09:37:58.953Z,10.10
2017-10-26T09:40:26.494Z,2.77
2017-10-26T09:42:54.092Z,5.07
2017-10-26T09:45:21.633Z,6.13
2017-10-26T09:47:49.173Z,4.20
2017-10-26T09:50:16.753Z,4.27
2017-10-26T09:52:45.119Z,6.30
2017-10-26T09:55:12.688Z,4.43
2017-10-26T09:57:40.235Z,6.53
2017-10-26T10:00:07.830Z,6.37
2017-10-26T10:02:36.164Z,8.20
2017-10-26T10:05:03.948Z,3.00
2017-10-26T10:07:31.483Z,5.47
2017-10-26T10:09:59.059Z,3.53
2017-10-26T10:12:26.597Z,5.23
2017-10-26T10:14:54.177Z,5.77
2017-10-26T10:17:21.703Z,7.67
2017-10-26T10:19:50.046Z,6.00
2017-10-26T10:22:17.589Z,3.60
2017-10-26T10:24:45.236Z,6.43
2017-10-26T10:27:12.909Z,7.13
2017-10-26T10:29:40.484Z,6.93
2017-10-26T10:32:08.029Z,5.67
2017-10-26T10:34:35.610Z,6.50
2017-10-26T10:37:03.151Z,5.80
2017-10-26T10:39:30.683Z,5.43
2017-10-26T10:41:58.282Z,8.70
2017-10-26T10:44:25.830Z,6.80
2017-10-26T10:46:53.409Z,7.30
2017-10-26T10:49:20.941Z,6.27
2017-10-26T10:51:48.908Z,8.20
2017-10-26T10:54:16.452Z,6.03
2017-10-26T10:56:44.030Z,7.40
2017-10-26T10:59:17.284Z,9.17
2017-10-26T11:01:45.631Z,10.30
2017-10-26T11:04:13.170Z,5.20
2017-10-26T11:06:40.932Z,7.50
2017-10-26T11:09:08.483Z,19.67
2017-10-26T11:11:36.022Z,7.90
2017-10-26T11:14:03.601Z,3.90
2017-10-26T11:16:31.128Z,6.93
2017-10-26T11:18:59.438Z,6.80
2017-10-26T11:21:27.031Z,4.20
2017-10-26T11:23:55.337Z,7.57
2017-10-26T11:26:23.635Z,4.80
2017-10-26T11:28:51.221Z,4.13
2017-10-26T11:31:18.763Z,5.57
2017-10-26T11:33:46.341Z,3.60
2017-10-26T11:36:13.876Z,10.17
2017-10-26T11:38:41.451Z,4.30
2017-10-26T11:41:08.992Z,5.57
2017-10-26T11:43:36.553Z,4.37
2017-10-26T11:46:04.098Z,3.83
2017-10-26T11:48:32.452Z,5.13
2017-10-26T11:50:59.987Z,9.13
2017-10-26T11:53:27.521Z,7.10
2017-10-26T11:55:55.105Z,4.60
2017-10-26T11:58:22.637Z,10.37
2017-10-26T12:00:50.173Z,3.23
2017-10-26T12:03:18.504Z,6.17
2017-10-26T12:05:46.044Z,4.97
2017-10-26T12:08:13.623Z,3.97
2017-10-26T12:10:41.153Z,6.13
2017-10-26T12:13:08.702Z,16.53
2017-10-26T12:15:36.271Z,7.40
2017-10-26T12:18:03.848Z,5.83
2017-10-26T12:20:31.407Z,6.93
2017-10-26T12:22:58.984Z,10.27
2017-10-26T12:25:26.517Z,4.93
2017-10-26T12:27:54.098Z,5.33
2017-10-26T12:30:21.656Z,4.80
2017-10-26T12:32:49.237Z,5.03
2017-10-26T12:35:16.827Z,6.97
2017-10-26T12:37:45.129Z,6.67
2017-10-26T12:40:12.697Z,7.73
2017-10-26T12:42:40.269Z,3.13
2017-10-26T12:45:07.849Z,6.43
2017-10-26T12:47:35.414Z,4.77
2017-10-26T12:50:02.977Z,5.07
2017-10-26T12:52:30.545Z,5.83
2017-10-26T12:54:59.581Z,4.20
2017-10-26T12:57:27.152Z,5.80
2017-10-26T12:59:54.685Z,4.10
2017-10-26T13:02:23.011Z,4.00
2017-10-26T13:04:50.594Z,10.03
2017-10-26T13:07:18.933Z,4.90
2017-10-26T13:09:46.469Z,4.00
2017-10-26T13:12:14.809Z,6.90
2017-10-26T13:14:42.345Z,4.33
2017-10-26T13:17:09.920Z,4.97
2017-10-26T13:19:37.501Z,7.47
2017-10-26T13:22:05.040Z,5.57
2017-10-26T13:24:32.609Z,5.33
2017-10-26T13:27:00.149Z,6.27
2017-10-26T13:29:27.723Z,6.97
2017-10-26T13:31:55.260Z,6.37
2017-10-26T13:34:22.796Z,6.17
2017-10-26T13:36:50.364Z,8.13
2017-10-26T13:39:17.902Z,9.10
2017-10-26T13:41:46.252Z,7.60
2017-10-26T13:44:13.785Z,6.67
2017-10-26T13:46:41.321Z,6.00
2017-10-26T13:49:08.882Z,6.60
2017-10-26T13:51:36.421Z,5.03
2017-10-26T13:54:04.766Z,4.80
2017-10-26T13:56:33.843Z,5.83
2017-10-26T13:59:01.380Z,3.73
2017-10-26T14:01:28.944Z,7.20
2017-10-26T14:03:56.476Z,7.17
2017-10-26T14:06:24.829Z,7.13
2017-10-26T14:08:52.369Z,6.50
2017-10-26T14:11:19.916Z,6.00
2017-10-26T14:13:47.496Z,4.73
2017-10-26T14:16:15.029Z,6.10
2017-10-26T14:18:42.564Z,3.93
2017-10-26T14:21:10.133Z,6.70
2017-10-26T14:23:37.709Z,4.73
2017-10-26T14:26:05.294Z,5.97
2017-10-26T14:28:32.823Z,4.83
2017-10-26T14:31:00.367Z,6.97
2017-10-26T14:33:27.957Z,5.63
2017-10-26T14:35:55.483Z,4.40
2017-10-26T14:38:23.035Z,5.93
2017-10-26T14:40:51.383Z,6.23
2017-10-26T14:43:18.911Z,9.87
2017-10-26T14:45:46.480Z,6.70
2017-10-26T14:48:14.018Z,7.03
2017-10-26T14:50:41.588Z,11.13
2017-10-26T14:53:09.128Z,8.07
2017-10-26T14:55:36.718Z,8.70
2017-10-26T14:58:04.258Z,10.30
2017-10-26T15:00:31.796Z,6.93
2017-10-26T15:02:59.369Z,9.60
2017-10-26T15:05:26.908Z,7.27
2017-10-26T15:07:55.238Z,6.63
2017-10-26T15:10:22.782Z,6.47
2017-10-26T15:12:50.351Z,6.87
2017-10-26T15:15:17.912Z,13.10
2017-10-26T15:17:45.482Z,6.93
2017-10-26T15:20:13.022Z,13.10
2017-10-26T15:22:40.630Z,9.00
2017-10-26T15:25:08.936Z,8.30
2017-10-26T15:27:36.608Z,10.00
2017-10-26T15:30:04.148Z,10.30
2017-10-26T15:32:31.692Z,8.20
2017-10-26T15:35:00.039Z,7.53
2017-10-26T15:37:27.574Z,9.00
2017-10-26T15:39:55.117Z,10.00
2017-10-26T15:42:22.685Z,9.10
2017-10-26T15:44:50.217Z,6.73
2017-10-26T15:47:18.634Z,8.03
2017-10-26T15:49:46.166Z,9.60
2017-10-26T15:52:14.471Z,7.47
2017-10-26T15:54:42.041Z,10.50
2017-10-26T15:57:09.572Z,8.33
2017-10-26T15:59:37.145Z,12.33
2017-10-26T16:02:04.685Z,11.30
2017-10-26T16:04:32.270Z,11.53
2017-10-26T16:06:59.805Z,11.97
2017-10-26T16:09:28.129Z,14.67
2017-10-26T16:11:55.710Z,19.90
2017-10-26T16:14:23.247Z,14.53
2017-10-26T16:16:50.789Z,12.43
2017-10-26T16:19:18.364Z,16.60
2017-10-26T16:21:45.902Z,16.90
2017-10-26T16:24:13.473Z,17.43
2017-10-26T16:26:41.018Z,15.10
2017-10-26T16:29:08.593Z,17.43
2017-10-26T16:31:36.165Z,20.10
2017-10-26T16:34:03.750Z,18.80
2017-10-26T16:36:32.053Z,21.13
2017-10-26T16:39:00.408Z,20.37
2017-10-26T16:41:27.944Z,18.23
2017-10-26T16:43:55.515Z,17.17
2017-10-26T16:46:23.087Z,23.00
2017-10-26T16:48:51.424Z,20.83
2017-10-26T16:51:19.014Z,20.23
2017-10-26T16:53:46.553Z,23.90
2017-10-26T16:56:14.084Z,24.30
2017-10-26T16:58:41.662Z,24.70
2017-10-26T17:01:09.207Z,20.90
2017-10-26T17:03:36.781Z,23.20
2017-10-26T17:06:04.321Z,24.07
2017-10-26T17:08:31.898Z,24.47
2017-10-26T17:10:59.546Z,20.47
2017-10-26T17:13:27.132Z,29.57
2017-10-26T17:15:56.499Z,31.23
2017-10-26T17:18:25.012Z,29.63
2017-10-26T17:20:53.826Z,28.37
2017-10-26T17:23:21.418Z,28.63
2017-10-26T17:26:03.001Z,27.77
2017-10-26T17:28:30.611Z,33.43
2017-10-26T17:30:58.280Z,27.73
2017-10-26T17:33:28.925Z,26.57
2017-10-26T17:35:56.568Z,25.73
2017-10-26T17:38:24.106Z,32.03
2017-10-26T17:40:51.686Z,30.50
2017-10-26T17:43:21.310Z,27.33
2017-10-26T17:48:56.648Z,30.67
2017-10-26T17:51:24.224Z,24.43
2017-10-26T17:53:51.761Z,29.37
2017-10-26T17:56:19.341Z,39.33
2017-10-26T17:58:46.918Z,40.23
2017-10-26T18:01:14.459Z,28.07
2017-10-26T18:03:42.027Z,33.50
2017-10-26T18:06:09.574Z,26.43
2017-10-26T18:08:37.148Z,26.67
2017-10-26T18:11:04.733Z,27.23
2017-10-26T18:13:32.310Z,26.83
2017-10-26T18:16:00.614Z,26.97
2017-10-26T18:18:28.198Z,28.60
2017-10-26T18:20:55.736Z,30.53
2017-10-26T18:23:23.318Z,24.90
2017-10-26T18:25:50.861Z,26.30
2017-10-26T18:28:18.446Z,49.53
2017-10-26T18:30:45.985Z,37.57
2017-10-26T18:33:13.565Z,36.37
2017-10-26T18:35:41.099Z,25.50
2017-10-26T18:38:08.684Z,23.20
2017-10-26T18:40:36.220Z,25.43
2017-10-26T18:43:04.021Z,27.03
2017-10-26T18:45:31.563Z,33.57
2017-10-26T18:47:59.108Z,25.93
2017-10-26T18:50:26.688Z,26.70
2017-10-26T18:52:54.226Z,32.67
2017-10-26T18:55:21.802Z,27.60
2017-10-26T18:57:49.351Z,21.40
2017-10-26T19:00:16.935Z,28.67
2017-10-26T19:02:44.473Z,23.17
2017-10-26T19:05:12.053Z,24.13
2017-10-26T19:07:39.598Z,23.97
2017-10-26T19:10:07.172Z,26.40
2017-10-26T19:12:34.734Z,26.33
2017-10-26T19:15:02.317Z,26.30
2017-10-26T19:17:30.631Z,27.53
2017-10-26T19:19:58.230Z,30.63
2017-10-26T19:22:25.773Z,23.63
2017-10-26T19:24:53.349Z,25.63
2017-10-26T19:27:20.893Z,31.93
2017-10-26T19:29:48.476Z,24.00
2017-10-26T19:32:16.014Z,26.50
2017-10-26T19:34:43.594Z,23.77
2017-10-26T19:37:11.133Z,24.80
2017-10-26T19:39:38.821Z,26.60
2017-10-26T19:42:06.360Z,30.30
2017-10-26T19:44:33.895Z,29.93
2017-10-26T19:47:02.239Z,28.57
2017-10-26T19:49:29.794Z,27.90
2017-10-26T19:51:57.376Z,31.50
2017-10-26T19:54:25.680Z,28.73
2017-10-26T19:56:53.262Z,28.20
2017-10-26T19:59:20.805Z,26.50
2017-10-26T20:01:48.390Z,28.17
2017-10-26T20:04:15.936Z,29.80
2017-10-26T20:06:43.522Z,32.23
2017-10-26T20:09:11.071Z,26.70
2017-10-26T20:11:38.654Z,29.30
2017-10-26T20:14:06.284Z,31.73
2017-10-26T20:16:33.872Z,31.57
2017-10-26T20:19:01.416Z,25.17
2017-10-26T20:21:28.989Z,29.10
2017-10-26T20:23:56.535Z,29.53
2017-10-26T20:26:24.114Z,31.17
2017-10-26T20:28:51.665Z,27.30
2017-10-26T20:31:19.304Z,27.00
2017-10-26T20:33:46.848Z,31.77
2017-10-26T20:36:14.398Z,26.43
2017-10-26T20:38:41.984Z,22.77
2017-10-26T20:41:09.525Z,22.00
2017-10-26T20:43:37.111Z,25.30
2017-10-26T20:46:04.697Z,24.03
2017-10-26T20:48:32.245Z,21.40
2017-10-26T20:51:05.608Z,24.33
2017-10-26T20:53:38.780Z,19.30
2017-10-26T20:56:12.825Z,19.10
2017-10-26T20:58:59.278Z,19.60
2017-10-26T21:01:32.534Z,16.93
2017-10-26T21:04:05.678Z,18.60
2017-10-26T21:06:34.036Z,22.90
2017-10-26T21:09:07.220Z,21.33
2017-10-26T21:11:55.712Z,22.57
2017-10-26T21:14:28.129Z,21.10
2017-10-26T21:16:55.721Z,20.83
2017-10-26T21:19:24.032Z,16.60
2017-10-26T21:21:51.617Z,18.90
2017-10-26T21:24:19.157Z,21.70
2017-10-26T21:26:46.831Z,24.67
2017-10-26T21:29:14.377Z,20.60
2017-10-26T21:31:41.974Z,20.50
2017-10-26T21:34:09.525Z,17.53
2017-10-26T21:36:37.069Z,24.60
2017-10-26T21:39:04.656Z,19.87
2017-10-26T21:41:32.196Z,19.13
2017-10-26T21:43:59.857Z,19.57
2017-10-26T21:46:27.487Z,21.60
2017-10-26T21:48:55.073Z,19.73
2017-10-26T21:51:22.627Z,20.57
2017-10-26T21:53:50.218Z,20.10
2017-10-26T21:56:17.770Z,23.00
2017-10-26T21:58:45.361Z,17.73
2017-10-26T22:01:13.674Z,15.90
2017-10-26T22:03:41.250Z,13.17
2017-10-26T22:06:08.787Z,17.00
2017-10-26T22:08:36.367Z,11.67
2017-10-26T22:11:03.914Z,15.97
2017-10-26T22:13:31.449Z,12.00
2017-10-26T22:15:59.797Z,14.37
2017-10-26T22:18:27.348Z,11.67
2017-10-26T22:20:54.934Z,15.33
2017-10-26T22:23:22.473Z,9.70
2017-10-26T22:25:50.059Z,13.50
2017-10-26T22:28:17.595Z,11.03
2017-10-26T22:30:45.179Z,9.13
2017-10-26T22:33:13.497Z,11.30
2017-10-26T22:35:41.081Z,11.23
2017-10-26T22:38:08.631Z,10.10
2017-10-26T22:40:36.217Z,10.57
2017-10-26T22:43:03.756Z,9.40
2017-10-26T22:45:31.334Z,12.03
2017-10-26T22:47:58.867Z,8.90
2017-10-26T22:50:26.442Z,12.23
2017-10-26T22:52:53.986Z,10.60
2017-10-26T22:55:21.582Z,8.40
2017-10-26T22:57:49.134Z,13.37
2017-10-26T23:00:16.716Z,8.37
2017-10-26T23:02:45.030Z,13.90
2017-10-26T23:05:12.609Z,7.50
2017-10-26T23:07:40.146Z,6.70
2017-10-26T23:10:07.745Z,9.90
2017-10-26T23:12:35.278Z,6.30
2017-10-26T23:15:02.860Z,8.80
2017-10-26T23:17:30.401Z,8.57
2017-10-26T23:19:57.985Z,10.97
2017-10-26T23:22:25.529Z,10.20
2017-10-26T23:24:53.104Z,7.53
2017-10-26T23:27:20.640Z,10.20
2017-10-26T23:29:48.227Z,9.03
2017-10-26T23:32:15.771Z,11.30
2017-10-26T23:34:43.350Z,10.93
2017-10-26T23:37:10.889Z,9.20
2017-10-26T23:39:38.466Z,7.07
2017-10-26T23:42:06.109Z,8.40
2017-10-26T23:44:33.690Z,12.10
2017-10-26T23:47:01.246Z,6.90
2017-10-26T23:49:28.825Z,9.90
2017-10-26T23:51:56.371Z,7.37
2017-10-26T23:54:23.947Z,7.40
2017-10-26T23:56:51.482Z,7.87
2017-10-26T23:59:19.062Z,9.83
